Time;durP1;ratioP1;P1;durP2;ratioP2;P2;SDS_P1;SDS_P2;PMS_P1;PMS_P2;Temp;Humidity;BMP_temperature;BMP_pressure;BME280_temperature;BME280_humidity;BME280_pressure;Samples;Min_cycle;Max_cycle;Signal;HPM_P1;HPM_P2
2022/12/01 00:01:24;;;;;;;37.58;17.48;;;;;;;5.73;99.23;102643.72;5060912;28;20188;-69
2022/12/01 00:03:50;;;;;;;37.42;17.80;;;;;;;5.74;99.31;102644.66;5061758;28;20025;-69
2022/12/01 00:06:18;;;;;;;35.10;17.00;;;;;;;5.74;99.26;102642.06;5063444;28;20244;-69
2022/12/01 00:11:29;;;;;;;35.83;17.42;;;;;;;5.76;99.29;102643.06;5056431;28;20070;-69
2022/12/01 00:13:54;;;;;;;36.92;16.92;;;;;;;5.76;98.90;102645.66;5062993;28;20044;-69
2022/12/01 00:16:20;;;;;;;39.08;18.63;;;;;;;5.74;99.50;102645.53;5055835;28;20064;-68
2022/12/01 00:18:49;;;;;;;43.67;18.63;;;;;;;5.72;99.40;102639.38;5056187;28;20038;-69
2022/12/01 00:21:19;;;;;;;36.33;17.48;;;;;;;5.71;98.93;102639.25;5056035;28;20032;-69
2022/12/01 00:23:48;;;;;;;38.95;17.83;;;;;;;5.70;99.27;102643.50;5058571;28;20016;-69
2022/12/01 00:26:18;;;;;;;36.45;17.73;;;;;;;5.72;99.52;102636.78;5051696;28;20279;-68
2022/12/01 00:28:43;;;;;;;39.88;17.33;;;;;;;5.74;99.63;102636.88;5052081;28;20041;-68
2022/12/01 00:31:10;;;;;;;40.83;17.33;;;;;;;5.73;99.83;102637.66;5051247;28;20033;-69
2022/12/01 00:33:35;;;;;;;39.97;18.73;;;;;;;5.70;99.48;102634.88;5053031;28;20017;-68
2022/12/01 00:36:01;;;;;;;43.75;18.73;;;;;;;5.66;99.67;102628.59;5045485;28;20188;-69
2022/12/01 00:38:27;;;;;;;40.58;18.40;;;;;;;5.64;99.96;102632.72;5054887;28;20067;-69
2022/12/01 00:40:52;;;;;;;46.40;19.38;;;;;;;5.63;99.83;102633.50;5051984;28;20187;-69
2022/12/01 00:43:18;;;;;;;45.72;19.52;;;;;;;5.63;99.95;102638.69;5050826;28;20115;-69
2022/12/01 00:45:43;;;;;;;43.40;19.52;;;;;;;5.64;100.00;102640.50;5038690;28;20135;-69
2022/12/01 00:48:08;;;;;;;43.20;19.13;;;;;;;5.65;100.00;102634.53;5056247;28;20294;-69
2022/12/01 00:50:34;;;;;;;45.33;18.92;;;;;;;5.67;100.00;102635.53;5055212;28;20068;-69
2022/12/01 00:52:59;;;;;;;47.33;19.17;;;;;;;5.66;100.00;102633.75;5052071;28;20180;-69
2022/12/01 00:55:24;;;;;;;50.17;19.38;;;;;;;5.64;100.00;102635.31;5051542;28;20033;-69
2022/12/01 00:57:50;;;;;;;49.50;20.38;;;;;;;5.65;100.00;102644.88;5048479;28;20096;-64
2022/12/01 01:00:16;;;;;;;47.83;19.58;;;;;;;5.64;100.00;102639.59;5058848;28;20037;-64
2022/12/01 01:02:41;;;;;;;51.40;19.50;;;;;;;5.63;100.00;102636.09;5061266;28;20036;-64
2022/12/01 01:05:07;;;;;;;49.42;19.92;;;;;;;5.63;100.00;102632.63;5061090;28;20029;-63
2022/12/01 01:07:32;;;;;;;49.53;20.23;;;;;;;5.63;100.00;102646.44;5056319;28;21097;-64
2022/12/01 01:09:57;;;;;;;48.90;19.92;;;;;;;5.63;100.00;102643.84;5057414;28;20207;-64
2022/12/01 01:12:23;;;;;;;49.70;20.17;;;;;;;5.63;100.00;102649.03;5050243;28;20042;-64
2022/12/01 01:14:48;;;;;;;47.47;18.85;;;;;;;5.64;100.00;102656.00;5054772;28;20357;-64
2022/12/01 01:17:13;;;;;;;52.97;20.58;;;;;;;5.66;100.00;102651.88;5059212;28;20101;-64
2022/12/01 01:19:38;;;;;;;50.20;19.13;;;;;;;5.64;100.00;102648.25;5054695;28;20071;-63
2022/12/01 01:22:04;;;;;;;48.53;19.52;;;;;;;5.62;100.00;102652.41;5062219;28;20183;-64
2022/12/01 01:24:29;;;;;;;50.75;20.13;;;;;;;5.62;100.00;102655.00;5061120;28;20127;-64
2022/12/01 01:26:54;;;;;;;52.92;20.50;;;;;;;5.64;100.00;102657.69;5052436;28;20075;-69
2022/12/01 01:29:20;;;;;;;48.65;19.63;;;;;;;5.64;100.00;102660.28;5054274;28;20301;-69
2022/12/01 01:31:45;;;;;;;48.78;18.75;;;;;;;5.65;100.00;102662.97;5053420;28;20021;-69
2022/12/01 01:34:10;;;;;;;48.28;18.88;;;;;;;5.66;100.00;102659.63;5056186;28;20029;-69
2022/12/01 01:36:36;;;;;;;45.60;19.00;;;;;;;5.67;100.00;102669.16;5045024;28;20037;-69
2022/12/01 01:39:01;;;;;;;44.40;18.00;;;;;;;5.66;100.00;102663.88;5056511;28;20036;-69
2022/12/01 01:41:27;;;;;;;53.25;19.65;;;;;;;5.64;100.00;102671.53;5049735;28;20025;-69
2022/12/01 01:43:56;;;;;;;45.55;19.10;;;;;;;5.62;100.00;102680.88;5050405;28;20196;-69
2022/12/01 01:46:23;;;;;;;47.07;18.93;;;;;;;5.64;99.97;102676.69;5046887;28;20022;-69
2022/12/01 01:48:52;;;;;;;44.38;17.90;;;;;;;5.62;100.00;102680.88;5060527;28;20032;-69
2022/12/01 01:51:25;;;;;;;45.47;18.77;;;;;;;5.61;100.00;102676.47;5061486;28;20055;-69
2022/12/01 01:53:55;;;;;;;47.00;19.52;;;;;;;5.61;100.00;102676.47;5056130;28;20014;-68
2022/12/01 01:56:21;;;;;;;52.17;19.05;;;;;;;5.59;99.83;102667.72;5050557;28;20052;-64
2022/12/01 01:58:48;;;;;;;45.28;19.05;;;;;;;5.60;99.79;102672.06;5054882;28;20035;-64
2022/12/01 02:01:14;;;;;;;44.78;18.38;;;;;;;5.57;99.57;102667.56;5049355;28;20021;-64
2022/12/01 02:03:40;;;;;;;46.33;18.35;;;;;;;5.58;100.00;102678.84;5054712;28;20035;-64
2022/12/01 02:06:06;;;;;;;45.65;18.13;;;;;;;5.57;100.00;102674.44;5048488;28;20040;-64
2022/12/01 02:08:34;;;;;;;46.40;17.95;;;;;;;5.57;100.00;102664.09;5052026;28;20041;-64
2022/12/01 02:11:47;;;;;;;48.92;19.13;;;;;;;5.61;100.00;102675.59;5051924;28;20032;-64
2022/12/01 02:14:38;;;;;;;45.58;18.08;;;;;;;5.61;100.00;102673.88;4974247;28;20191;-63
2022/12/01 02:17:15;;;;;;;46.30;17.67;;;;;;;5.61;100.00;102676.47;5056727;28;20029;-64
2022/12/01 02:20:02;;;;;;;47.67;18.80;;;;;;;5.58;100.00;102671.97;5046859;28;20036;-64
2022/12/01 02:22:45;;;;;;;53.60;18.80;;;;;;;5.58;99.83;102669.38;5051838;28;20099;-64
2022/12/01 02:25:34;;;;;;;47.13;18.38;;;;;;;5.58;100.00;102677.13;5053537;28;20029;-64
2022/12/01 02:28:17;;;;;;;48.27;19.83;;;;;;;5.59;100.00;102670.31;5053233;28;20033;-64
2022/12/01 02:30:57;;;;;;;47.92;18.92;;;;;;;5.59;100.00;102672.88;5047803;28;20280;-64
2022/12/01 02:33:31;;;;;;;46.55;18.90;;;;;;;5.59;100.00;102672.88;5054865;28;20024;-64
2022/12/01 02:36:07;;;;;;;48.35;19.77;;;;;;;5.61;100.00;102676.47;5061048;28;20108;-64
2022/12/01 02:38:44;;;;;;;47.20;19.33;;;;;;;5.61;100.00;102676.47;5057325;28;20135;-69
2022/12/01 02:41:18;;;;;;;52.05;20.38;;;;;;;5.58;100.00;102671.97;5049355;28;20032;-69
2022/12/01 02:43:49;;;;;;;52.72;21.15;;;;;;;5.55;100.00;102670.84;5053579;28;20056;-69
2022/12/01 02:46:26;;;;;;;53.08;20.95;;;;;;;5.53;100.00;102669.81;5056040;28;20032;-68
2022/12/01 02:48:54;;;;;;;51.30;20.63;;;;;;;5.55;100.00;102673.44;5055372;28;20028;-69
2022/12/01 02:51:24;;;;;;;52.78;20.30;;;;;;;5.55;100.00;102670.84;5062068;28;21053;-69
2022/12/01 02:53:51;;;;;;;55.35;21.02;;;;;;;5.56;100.00;102667.47;5057384;28;20025;-69
2022/12/01 02:56:20;;;;;;;53.03;20.70;;;;;;;5.58;100.00;102676.25;5057743;28;20029;-69
2022/12/01 02:58:45;;;;;;;51.13;20.85;;;;;;;5.58;100.00;102671.09;5061598;28;20032;-69
2022/12/01 03:01:29;;;;;;;49.47;19.85;;;;;;;5.57;100.00;102670.16;5065302;28;20038;-68
2022/12/01 03:04:24;;;;;;;51.60;19.50;;;;;;;5.59;100.00;102672.88;5063737;28;20048;-69
2022/12/01 03:07:06;;;;;;;52.90;19.77;;;;;;;5.60;100.00;102672.06;5063565;28;20025;-68
2022/12/01 03:09:40;;;;;;;49.70;19.77;;;;;;;5.62;100.00;102677.38;5061391;28;21113;-69
2022/12/01 03:12:43;;;;;;;49.35;21.15;;;;;;;5.61;100.00;102679.06;5058187;28;20079;-68
2022/12/01 03:15:27;;;;;;;49.97;19.27;;;;;;;5.60;100.00;102677.25;5039382;28;20026;-69
2022/12/01 03:18:20;;;;;;;46.22;18.67;;;;;;;5.64;100.00;102679.28;5052256;28;20064;-69
2022/12/01 03:20:57;;;;;;;47.00;18.98;;;;;;;5.63;100.00;102676.59;5053374;28;20121;-69
2022/12/01 03:23:27;;;;;;;54.20;20.75;;;;;;;5.63;100.00;102674.00;5061526;28;20336;-69
2022/12/01 03:25:55;;;;;;;48.92;18.75;;;;;;;5.63;100.00;102674.88;5065099;28;20107;-69
2022/12/01 03:28:27;;;;;;;47.95;20.08;;;;;;;5.64;100.00;102671.53;5064105;28;20024;-69
2022/12/01 03:30:57;;;;;;;47.40;19.30;;;;;;;5.63;100.00;102674.00;5065146;28;20033;-69
2022/12/01 03:33:38;;;;;;;49.83;20.02;;;;;;;5.62;100.00;102675.69;5065179;28;20313;-69
2022/12/01 03:36:16;;;;;;;46.58;18.95;;;;;;;5.63;100.00;102680.06;5060556;28;20044;-69
2022/12/01 03:38:46;;;;;;;49.28;19.20;;;;;;;5.62;100.00;102677.38;5030698;28;20321;-68
2022/12/01 03:41:18;;;;;;;46.85;19.17;;;;;;;5.62;100.00;102674.78;5061760;28;20044;-69
2022/12/01 03:43:49;;;;;;;45.25;19.58;;;;;;;5.62;100.00;102674.78;5054912;28;20031;-69
2022/12/01 03:46:22;;;;;;;48.58;19.50;;;;;;;5.62;100.00;102678.28;5056504;28;20040;-69
2022/12/01 03:48:48;;;;;;;47.08;19.25;;;;;;;5.61;100.00;102673.00;5063399;28;20260;-68
2022/12/01 03:51:19;;;;;;;48.55;19.33;;;;;;;5.58;100.00;102666.78;5069656;28;20040;-68
2022/12/01 03:53:59;;;;;;;45.72;20.35;;;;;;;5.60;100.00;102679.84;5062341;28;20035;-69
2022/12/01 03:56:30;;;;;;;47.85;19.27;;;;;;;5.58;100.00;102674.56;5053122;28;20056;-69
2022/12/01 03:58:59;;;;;;;45.17;18.73;;;;;;;5.56;100.00;102678.72;5059411;28;20025;-69
2022/12/01 04:01:31;;;;;;;46.55;19.13;;;;;;;5.57;100.00;102679.63;5056451;28;20108;-69
2022/12/01 04:04:03;;;;;;;42.95;20.20;;;;;;;5.57;100.00;102683.09;5061827;28;20322;-69
2022/12/01 04:06:28;;;;;;;44.33;19.55;;;;;;;5.56;100.00;102689.06;5051993;28;20025;-68
2022/12/01 04:08:53;;;;;;;48.15;20.05;;;;;;;5.54;100.00;102685.44;5053280;28;20175;-69
2022/12/01 04:14:02;;;;;;;43.78;19.63;;;;;;;5.56;100.00;102688.16;5050234;28;20091;-69
2022/12/01 04:16:27;;;;;;;46.25;19.20;;;;;;;5.55;100.00;102682.09;5052503;28;20260;-69
2022/12/01 04:18:53;;;;;;;48.20;19.50;;;;;;;5.54;100.00;102682.88;5053661;28;20025;-69
2022/12/01 04:21:18;;;;;;;47.33;19.25;;;;;;;5.54;100.00;102677.69;5054459;28;20052;-68
2022/12/01 04:23:59;;;;;;;45.63;19.23;;;;;;;5.55;100.00;102676.91;5059763;28;20036;-68
2022/12/01 04:26:24;;;;;;;45.15;19.92;;;;;;;5.60;100.00;102685.00;5059065;28;20044;-68
2022/12/01 04:28:49;;;;;;;46.20;19.63;;;;;;;5.60;100.00;102685.00;5050950;28;20179;-69
2022/12/01 04:31:15;;;;;;;46.60;19.48;;;;;;;5.62;100.00;102687.69;5051870;28;20029;-69
2022/12/01 04:33:40;;;;;;;46.00;19.55;;;;;;;5.62;100.00;102678.28;5044031;28;20098;-69
2022/12/01 04:36:05;;;;;;;48.47;19.83;;;;;;;5.62;100.00;102680.88;5054383;28;20092;-69
2022/12/01 04:38:31;;;;;;;44.30;18.98;;;;;;;5.64;100.00;102684.44;5058778;28;20025;-69
2022/12/01 04:40:56;;;;;;;43.78;19.25;;;;;;;5.65;100.00;102686.25;5059247;28;20272;-69
2022/12/01 04:43:21;;;;;;;47.55;19.98;;;;;;;5.64;100.00;102676.69;5048848;28;20057;-68
2022/12/01 04:45:47;;;;;;;45.03;19.40;;;;;;;5.65;100.00;102683.69;5055966;28;20032;-69
2022/12/01 04:48:12;;;;;;;45.92;20.40;;;;;;;5.65;100.00;102678.50;5056164;28;20302;-69
2022/12/01 04:50:37;;;;;;;44.00;18.88;;;;;;;5.67;100.00;102687.25;5063640;28;20036;-69
2022/12/01 04:53:03;;;;;;;49.70;18.75;;;;;;;5.67;100.00;102676.91;5057105;28;20263;-69
2022/12/01 04:55:28;;;;;;;46.38;19.52;;;;;;;5.68;100.00;102677.84;5063313;28;20036;-69
2022/12/01 04:57:53;;;;;;;46.28;19.80;;;;;;;5.68;100.00;102681.31;5040201;28;20021;-69
2022/12/01 05:00:19;;;;;;;44.15;18.65;;;;;;;5.69;100.00;102679.59;5048267;28;20048;-69
2022/12/01 05:02:44;;;;;;;47.42;20.10;;;;;;;5.65;100.00;102681.09;5049932;28;20068;-69
2022/12/01 05:05:11;;;;;;;44.10;18.65;;;;;;;5.67;100.00;102676.03;5047488;28;20227;-69
2022/12/01 05:07:36;;;;;;;43.75;18.35;;;;;;;5.67;100.00;102671.75;5053499;28;20029;-69
2022/12/01 05:10:02;;;;;;;39.72;18.58;;;;;;;5.68;100.00;102673.53;5060139;28;20136;-69
2022/12/01 05:12:27;;;;;;;44.03;18.83;;;;;;;5.68;99.96;102672.66;5057427;28;20025;-69
2022/12/01 05:14:52;;;;;;;41.83;18.17;;;;;;;5.67;99.68;102674.31;5048368;28;20040;-69
2022/12/01 05:17:18;;;;;;;46.28;19.33;;;;;;;5.65;100.00;102682.75;5053784;28;20203;-69
2022/12/01 05:22:27;;;;;;;42.53;18.25;;;;;;;5.65;99.93;102675.91;5056051;28;20082;-69
2022/12/01 05:24:52;;;;;;;41.88;18.58;;;;;;;5.66;100.00;102681.97;5062916;28;20092;-69
2022/12/01 05:27:17;;;;;;;42.05;18.20;;;;;;;5.65;100.00;102681.09;5062554;28;20179;-69
2022/12/01 05:29:43;;;;;;;40.45;18.08;;;;;;;5.66;100.00;102682.91;5059420;28;20040;-69
2022/12/01 05:32:08;;;;;;;39.58;17.70;;;;;;;5.65;100.00;102681.09;5060780;28;20406;-69
2022/12/01 05:34:33;;;;;;;44.92;19.80;;;;;;;5.63;99.96;102680.06;5074150;28;20021;-69
2022/12/01 05:36:59;;;;;;;43.63;19.15;;;;;;;5.63;100.00;102685.22;5062456;28;20972;-69
2022/12/01 05:39:24;;;;;;;42.53;19.33;;;;;;;5.63;99.93;102685.22;5060988;28;20021;-69
2022/12/01 05:41:49;;;;;;;43.85;18.42;;;;;;;5.60;100.00;102695.34;5062073;28;20032;-69
2022/12/01 05:44:15;;;;;;;43.30;18.85;;;;;;;5.58;100.00;102687.47;5040540;28;20172;-68
2022/12/01 05:46:40;;;;;;;43.75;18.60;;;;;;;5.58;100.00;102691.75;5060991;28;20016;-64
2022/12/01 05:49:05;;;;;;;38.90;18.33;;;;;;;5.58;100.00;102686.59;5057250;28;20048;-63
2022/12/01 05:51:30;;;;;;;43.38;19.27;;;;;;;5.58;100.00;102686.59;5054099;28;20275;-63
2022/12/01 05:53:58;;;;;;;43.90;19.75;;;;;;;5.57;100.00;102687.38;5060089;28;20056;-64
2022/12/01 05:56:23;;;;;;;45.33;18.70;;;;;;;5.57;100.00;102685.69;5049758;28;20033;-64
2022/12/01 05:58:49;;;;;;;40.67;18.75;;;;;;;5.58;100.00;102699.53;5062383;28;20086;-64
2022/12/01 06:01:14;;;;;;;43.85;18.92;;;;;;;5.58;100.00;102689.19;5056312;28;20131;-64
2022/12/01 06:03:40;;;;;;;41.15;18.85;;;;;;;5.55;100.00;102687.25;5053339;28;20095;-64
2022/12/01 06:06:05;;;;;;;45.67;19.30;;;;;;;5.53;100.00;102691.44;5048020;28;20210;-64
2022/12/01 06:08:30;;;;;;;49.08;19.27;;;;;;;5.54;100.00;102697.50;5052077;28;20052;-64
2022/12/01 06:10:55;;;;;;;43.70;18.92;;;;;;;5.51;100.00;102689.50;5062243;28;20025;-64
2022/12/01 06:13:21;;;;;;;47.97;20.25;;;;;;;5.50;100.00;102691.19;5059396;28;20036;-64
2022/12/01 06:15:55;;;;;;;41.67;19.17;;;;;;;5.52;100.00;102699.06;5067433;28;20278;-64
2022/12/01 06:18:20;;;;;;;45.13;19.48;;;;;;;5.52;100.00;102692.22;5055757;28;20271;-69
2022/12/01 06:20:45;;;;;;;47.85;19.15;;;;;;;5.52;100.00;102702.56;5059633;28;20124;-69
2022/12/01 06:23:10;;;;;;;44.83;18.77;;;;;;;5.53;100.00;102690.50;5068765;28;20021;-69
2022/12/01 06:25:36;;;;;;;50.50;20.10;;;;;;;5.54;100.00;102687.16;5060241;28;20044;-69
2022/12/01 06:28:01;;;;;;;50.80;20.40;;;;;;;5.53;100.00;102694.03;5062682;28;20348;-69
2022/12/01 06:30:26;;;;;;;46.10;18.90;;;;;;;5.53;100.00;102699.19;5066215;28;20278;-69
2022/12/01 06:32:52;;;;;;;47.33;18.67;;;;;;;5.52;100.00;102696.50;5054688;28;20048;-69
2022/12/01 06:35:17;;;;;;;48.78;19.20;;;;;;;5.52;100.00;102689.63;5056000;28;20025;-69
2022/12/01 06:37:42;;;;;;;46.95;19.80;;;;;;;5.51;100.00;102693.00;5063679;28;20021;-69
2022/12/01 06:40:08;;;;;;;47.28;19.20;;;;;;;5.50;100.00;102691.19;5061046;28;20025;-69
2022/12/01 06:42:34;;;;;;;48.92;19.17;;;;;;;5.49;100.00;102699.75;5061388;28;20026;-69
2022/12/01 06:44:59;;;;;;;50.25;19.70;;;;;;;5.48;99.97;102697.03;5053556;28;20038;-69
2022/12/01 06:47:24;;;;;;;51.53;20.42;;;;;;;5.46;100.00;102696.00;5049884;28;20045;-69
2022/12/01 06:49:49;;;;;;;43.42;19.10;;;;;;;5.45;100.00;102696.81;5059998;28;20055;-69
2022/12/01 06:52:15;;;;;;;43.60;17.73;;;;;;;5.44;100.00;102702.78;5057201;28;20228;-69
2022/12/01 06:54:41;;;;;;;46.85;19.25;;;;;;;5.45;100.00;102704.59;5065850;28;20044;-69
2022/12/01 06:57:06;;;;;;;44.88;19.15;;;;;;;5.45;100.00;102713.22;5055893;28;20025;-69
2022/12/01 06:59:32;;;;;;;44.63;18.98;;;;;;;5.46;100.00;102712.44;5056733;28;20029;-69
2022/12/01 07:01:57;;;;;;;47.42;18.95;;;;;;;5.46;100.00;102717.63;5063389;28;20021;-69
2022/12/01 07:04:22;;;;;;;47.20;18.35;;;;;;;5.48;99.95;102725.50;5061292;28;20076;-69
2022/12/01 07:06:47;;;;;;;43.10;18.63;;;;;;;5.50;100.00;102727.38;5062221;28;20041;-69
2022/12/01 07:09:12;;;;;;;45.33;18.15;;;;;;;5.51;100.00;102736.06;5059870;28;20041;-69
2022/12/01 07:11:38;;;;;;;44.58;19.08;;;;;;;5.53;99.86;102739.63;5064182;28;20024;-68
2022/12/01 07:14:03;;;;;;;45.55;18.65;;;;;;;5.53;99.77;102725.03;5048604;28;20029;-69
2022/12/01 07:16:28;;;;;;;43.35;18.60;;;;;;;5.54;99.92;102733.69;5055102;28;20037;-68
2022/12/01 07:18:54;;;;;;;49.10;19.92;;;;;;;5.55;99.86;102738.97;5057236;28;20184;-69
2022/12/01 07:21:19;;;;;;;49.15;19.52;;;;;;;5.55;99.62;102743.25;5059015;28;20025;-69
2022/12/01 07:23:45;;;;;;;41.67;18.40;;;;;;;5.56;99.28;102739.88;5065016;28;20044;-69
2022/12/01 07:26:16;;;;;;;43.03;18.48;;;;;;;5.56;99.59;102745.03;5065005;28;20290;-69
2022/12/01 07:28:42;;;;;;;43.08;18.52;;;;;;;5.57;99.73;102739.97;5061683;28;20024;-69
2022/12/01 07:31:11;;;;;;;41.28;18.67;;;;;;;5.58;99.59;102741.78;5065098;28;20037;-69
2022/12/01 07:33:36;;;;;;;45.38;19.08;;;;;;;5.58;99.61;102752.13;5065690;28;20021;-69
2022/12/01 07:36:03;;;;;;;40.83;18.80;;;;;;;5.58;99.34;102743.47;5064833;28;20083;-69
2022/12/01 07:38:33;;;;;;;46.92;19.48;;;;;;;5.61;99.39;102742.81;5063920;28;20020;-69
2022/12/01 07:41:07;;;;;;;45.97;18.70;;;;;;;5.62;99.09;102734.25;5064741;28;20036;-69
2022/12/01 07:43:33;;;;;;;43.10;18.30;;;;;;;5.61;98.89;102742.81;5062266;28;20108;-69
2022/12/01 07:46:10;;;;;;;43.92;19.30;;;;;;;5.63;99.17;102749.00;5057222;28;20044;-68
2022/12/01 07:48:37;;;;;;;42.55;18.77;;;;;;;5.64;99.01;102748.22;5064134;28;20024;-64
2022/12/01 07:51:04;;;;;;;41.35;18.80;;;;;;;5.66;99.13;102744.03;5061075;28;20067;-63
2022/12/01 07:53:30;;;;;;;41.85;19.10;;;;;;;5.67;98.69;102751.03;5057363;28;20040;-64
2022/12/01 07:55:55;;;;;;;44.33;18.63;;;;;;;5.66;98.84;102752.72;5053964;28;20272;-64
2022/12/01 07:58:21;;;;;;;46.90;19.15;;;;;;;5.67;98.95;102757.09;5054454;28;20033;-64
2022/12/01 08:00:46;;;;;;;43.97;18.83;;;;;;;5.68;98.67;102747.66;5049717;28;20052;-64
2022/12/01 08:03:11;;;;;;;43.92;19.00;;;;;;;5.67;98.50;102756.19;5062753;28;20144;-64
2022/12/01 08:05:37;;;;;;;49.53;19.75;;;;;;;5.66;98.06;102762.16;5054881;28;20029;-64
2022/12/01 08:08:02;;;;;;;42.50;19.02;;;;;;;5.64;98.53;102767.22;5063301;28;20032;-64
2022/12/01 08:10:27;;;;;;;45.67;18.38;;;;;;;5.65;98.82;102765.50;5057282;28;20064;-64
2022/12/01 08:12:53;;;;;;;44.13;19.25;;;;;;;5.64;98.05;102774.97;5058944;28;20032;-64
2022/12/01 08:15:18;;;;;;;41.20;18.73;;;;;;;5.65;98.37;102771.59;5056124;28;20025;-64
2022/12/01 08:17:43;;;;;;;46.50;20.30;;;;;;;5.64;97.88;102769.78;5051324;28;20036;-69
2022/12/01 08:20:09;;;;;;;45.55;19.65;;;;;;;5.64;98.38;102776.66;5055350;28;20021;-69
2022/12/01 08:22:34;;;;;;;43.88;19.35;;;;;;;5.63;98.42;102773.16;5060701;28;20024;-69
2022/12/01 08:24:59;;;;;;;41.83;19.55;;;;;;;5.64;98.09;102774.97;5061904;28;20020;-69
2022/12/01 08:27:25;;;;;;;45.55;19.33;;;;;;;5.66;98.12;102772.50;5051919;28;20248;-69
2022/12/01 08:29:50;;;;;;;42.22;19.88;;;;;;;5.66;97.50;102776.00;5052901;28;20052;-69
2022/12/01 08:32:16;;;;;;;44.83;19.70;;;;;;;5.65;97.38;102784.53;5046694;28;20114;-70
2022/12/01 08:34:42;;;;;;;45.92;20.08;;;;;;;5.67;97.69;102784.66;5045980;28;20256;-69
2022/12/01 08:37:07;;;;;;;46.17;19.77;;;;;;;5.66;98.18;102778.59;5061734;28;20021;-69
2022/12/01 08:39:32;;;;;;;41.85;19.20;;;;;;;5.68;98.45;102781.28;5068832;28;20033;-69
2022/12/01 08:41:58;;;;;;;44.95;19.58;;;;;;;5.70;98.43;102779.69;5066322;28;20024;-69
2022/12/01 08:44:23;;;;;;;47.30;20.70;;;;;;;5.71;98.49;102786.69;5061730;28;20041;-69
2022/12/01 08:46:48;;;;;;;44.90;20.10;;;;;;;5.70;99.07;102785.75;5061746;28;20207;-69
2022/12/01 08:49:14;;;;;;;46.25;19.35;;;;;;;5.70;98.94;102784.88;5062315;28;20143;-69
2022/12/01 08:51:39;;;;;;;47.13;19.98;;;;;;;5.71;99.10;102781.50;5060910;28;20017;-68
2022/12/01 08:54:04;;;;;;;44.55;20.25;;;;;;;5.70;98.45;102783.16;5061405;28;20047;-69
2022/12/01 08:56:39;;;;;;;45.97;20.50;;;;;;;5.68;98.84;102784.75;5061099;28;20032;-69
2022/12/01 08:59:04;;;;;;;46.08;20.60;;;;;;;5.66;98.45;102781.16;5062834;28;20041;-69
2022/12/01 09:01:31;;;;;;;42.20;19.67;;;;;;;5.70;99.02;102783.16;5061959;28;20153;-69
2022/12/01 09:04:04;;;;;;;43.85;19.63;;;;;;;5.71;98.46;102786.69;5063092;28;20041;-69
2022/12/01 09:06:49;;;;;;;45.55;20.05;;;;;;;5.73;98.54;102780.81;5063137;28;20087;-69
2022/12/01 09:09:25;;;;;;;43.15;18.95;;;;;;;5.75;98.39;102784.44;5061483;28;20032;-69
2022/12/01 09:11:53;;;;;;;43.22;20.00;;;;;;;5.78;98.80;102785.44;5044150;28;20135;-69
2022/12/01 09:14:20;;;;;;;44.33;20.50;;;;;;;5.77;98.80;102787.13;5069136;28;20024;-69
2022/12/01 09:16:48;;;;;;;46.88;20.10;;;;;;;5.76;98.10;102780.16;5065801;28;20031;-69
2022/12/01 09:19:14;;;;;;;44.95;19.60;;;;;;;5.78;98.36;102788.94;5045184;28;20274;-69
2022/12/01 09:21:41;;;;;;;53.65;20.65;;;;;;;5.81;97.95;102793.41;5061120;28;20076;-69
2022/12/01 09:24:09;;;;;;;46.15;21.17;;;;;;;5.82;98.23;102793.56;5062213;28;20075;-69
2022/12/01 09:26:34;;;;;;;45.70;20.63;;;;;;;5.85;98.06;102788.59;5062713;28;20264;-69
2022/12/01 09:29:05;;;;;;;45.83;19.92;;;;;;;5.87;98.21;102793.91;5062724;28;20084;-69
2022/12/01 09:31:31;;;;;;;44.17;19.70;;;;;;;5.90;97.90;102799.28;5066192;28;20490;-69
2022/12/01 09:34:02;;;;;;;43.90;19.27;;;;;;;5.91;98.33;102795.94;5062801;28;20314;-69
2022/12/01 09:36:29;;;;;;;48.05;20.98;;;;;;;5.94;98.05;102796.16;5051725;28;20307;-69
2022/12/01 09:38:55;;;;;;;45.85;20.92;;;;;;;5.96;98.21;102794.56;5061845;28;20035;-69
2022/12/01 09:41:23;;;;;;;50.80;21.40;;;;;;;5.98;97.97;102798.22;5059909;28;20064;-69
2022/12/01 09:44:01;;;;;;;48.42;21.15;;;;;;;5.98;97.80;102798.22;5057074;28;20195;-69
2022/12/01 09:46:35;;;;;;;42.53;20.20;;;;;;;5.99;98.25;102797.41;5054902;28;20020;-69
2022/12/01 09:49:02;;;;;;;47.30;20.08;;;;;;;6.02;97.68;102802.81;5051911;28;20028;-69
2022/12/01 09:51:29;;;;;;;55.55;21.50;;;;;;;6.03;97.24;102796.84;5049282;28;20060;-69
2022/12/01 09:53:57;;;;;;;48.47;20.75;;;;;;;6.05;98.02;102795.28;5052110;28;20021;-69
2022/12/01 09:56:31;;;;;;;52.75;22.00;;;;;;;6.07;97.79;102788.53;5050976;28;20033;-69
2022/12/01 09:59:05;;;;;;;52.20;21.67;;;;;;;6.09;97.50;102789.53;5036361;28;20017;-69
2022/12/01 10:01:35;;;;;;;45.80;19.77;;;;;;;6.11;97.19;102789.63;5052463;28;20025;-68
2022/12/01 10:04:10;;;;;;;46.92;20.65;;;;;;;6.11;96.84;102788.75;5046201;28;20069;-69
2022/12/01 10:06:45;;;;;;;45.53;20.77;;;;;;;6.11;96.68;102783.56;5051019;28;20115;-69
2022/12/01 10:09:25;;;;;;;46.20;20.45;;;;;;;6.11;97.01;102778.41;5058762;28;20029;-69
2022/12/01 10:11:57;;;;;;;49.75;21.35;;;;;;;6.12;96.89;102777.63;5031799;28;20176;-69
2022/12/01 10:14:22;;;;;;;49.08;20.33;;;;;;;6.14;96.75;102779.53;5058479;28;20296;-69
2022/12/01 10:17:15;;;;;;;52.55;22.05;;;;;;;6.17;97.27;102782.34;5053684;28;20034;-69
2022/12/01 10:19:47;;;;;;;52.67;21.02;;;;;;;6.19;96.70;102785.03;5049787;28;20282;-69
2022/12/01 10:22:32;;;;;;;54.55;22.42;;;;;;;6.18;95.04;102772.88;5049695;28;20147;-69
2022/12/01 10:25:11;;;;;;;49.47;21.92;;;;;;;6.17;94.64;102773.66;5047612;28;20024;-69
2022/12/01 10:27:46;;;;;;;49.17;21.20;;;;;;;6.18;95.17;102778.06;5056674;28;20068;-69
2022/12/01 10:30:15;;;;;;;46.60;20.83;;;;;;;6.19;95.22;102765.22;5050927;28;20347;-69
2022/12/01 10:32:51;;;;;;;;;;;;;;;6.28;96.48;102766.69;5061362;28;20017;-69
2022/12/01 10:35:22;;;;;;;49.47;20.33;;;;;;;6.24;94.50;102766.47;5055264;28;19932;-69
2022/12/01 10:37:53;;;;;;;52.17;21.67;;;;;;;6.26;95.20;102764.88;5055361;28;20283;-69
2022/12/01 10:40:18;;;;;;;49.95;21.48;;;;;;;6.27;94.86;102755.41;5052247;28;20025;-69
2022/12/01 10:42:46;;;;;;;52.38;22.20;;;;;;;6.28;95.37;102757.22;5051002;28;20094;-69
2022/12/01 10:45:16;;;;;;;49.13;21.50;;;;;;;6.31;95.80;102751.38;5056481;28;20027;-69
2022/12/01 10:48:14;;;;;;;48.55;21.80;;;;;;;6.34;94.68;102752.47;5046330;28;20033;-70
2022/12/01 10:50:42;;;;;;;46.20;21.10;;;;;;;6.38;95.75;102746.72;5061101;28;20025;-70
2022/12/01 10:53:26;;;;;;;76.45;33.13;;;;;;;6.43;95.27;102755.75;5061876;28;20084;-69
2022/12/01 10:56:10;;;;;;;60.78;27.48;;;;;;;6.48;96.46;102748.28;5068004;28;20023;-69
2022/12/01 10:58:46;;;;;;;240.82;98.53;;;;;;;6.57;96.18;102755.81;5069126;28;20021;-68
2022/12/01 11:01:24;;;;;;;60.70;26.58;;;;;;;6.60;95.27;102744.00;5064652;28;20021;-69
2022/12/01 11:03:56;;;;;;;183.50;84.13;;;;;;;6.64;95.11;102752.88;5065543;28;20028;-69
2022/12/01 11:06:24;;;;;;;91.70;42.83;;;;;;;6.66;94.94;102750.38;5065727;28;20098;-69
2022/12/01 11:08:54;;;;;;;71.97;35.33;;;;;;;6.68;93.78;102743.63;5064713;28;20096;-69
2022/12/01 11:11:38;;;;;;;76.78;35.78;;;;;;;6.74;95.00;102746.66;5065355;28;20282;-69
2022/12/01 11:14:15;;;;;;;74.10;34.53;;;;;;;6.77;94.90;102745.16;5071354;28;20024;-69
2022/12/01 11:16:47;;;;;;;63.83;28.33;;;;;;;6.83;93.71;102741.22;5065221;28;20020;-69
2022/12/01 11:19:18;;;;;;;63.28;28.75;;;;;;;6.82;93.13;102736.81;5062822;28;20036;-69
2022/12/01 11:21:50;;;;;;;58.10;26.02;;;;;;;6.85;93.98;102742.19;5063361;28;20052;-69
2022/12/01 11:24:28;;;;;;;52.83;23.60;;;;;;;6.87;93.44;102740.63;5061176;28;20024;-69
2022/12/01 11:26:57;;;;;;;50.08;22.58;;;;;;;6.88;93.08;102737.22;5065104;28;20017;-69
2022/12/01 11:29:35;;;;;;;50.20;22.42;;;;;;;6.87;93.85;102727.69;5064966;28;20025;-69
2022/12/01 11:32:20;;;;;;;51.63;22.43;;;;;;;6.87;93.21;102730.28;5065422;28;20052;-69